sensor_id;sensor_type;location;lat;lon;timestamp;pressure;altitude;pressure_sealevel;temperature;humidity
49723;BME280;43484;43.608;1.458;2023-04-29T00:00:07;99297.28;;;17.03;100.00
49723;BME280;43484;43.608;1.458;2023-04-29T00:02:34;99286.06;;;17.04;100.00
49723;BME280;43484;43.608;1.458;2023-04-29T00:05:01;99266.19;;;17.06;100.00
49723;BME280;43484;43.608;1.458;2023-04-29T00:07:31;99287.75;;;17.07;100.00
49723;BME280;43484;43.608;1.458;2023-04-29T00:10:00;99287.75;;;17.07;100.00
49723;BME280;43484;43.608;1.458;2023-04-29T00:12:26;99286.91;;;17.09;100.00
49723;BME280;43484;43.608;1.458;2023-04-29T00:14:57;99282.63;;;17.04;100.00
49723;BME280;43484;43.608;1.458;2023-04-29T00:17:24;99299.00;;;17.07;100.00
49723;BME280;43484;43.608;1.458;2023-04-29T00:19:50;99299.84;;;17.03;100.00
49723;BME280;43484;43.608;1.458;2023-04-29T00:22:17;99280.03;;;17.04;100.00
49723;BME280;43484;43.608;1.458;2023-04-29T00:24:44;99281.75;;;17.02;100.00
49723;BME280;43484;43.608;1.458;2023-04-29T00:27:11;99277.41;;;17.07;100.00
49723;BME280;43484;43.608;1.458;2023-04-29T00:29:37;99265.38;;;17.04;100.00
49723;BME280;43484;43.608;1.458;2023-04-29T00:32:04;99266.22;;;17.02;100.00
49723;BME280;43484;43.608;1.458;2023-04-29T00:34:30;99263.63;;;17.03;100.00
49723;BME280;43484;43.608;1.458;2023-04-29T00:36:57;99263.63;;;17.02;100.00
49723;BME280;43484;43.608;1.458;2023-04-29T00:39:23;99263.63;;;17.05;100.00
49723;BME280;43484;43.608;1.458;2023-04-29T00:41:51;99257.59;;;17.01;100.00
49723;BME280;43484;43.608;1.458;2023-04-29T00:44:18;99246.38;;;17.04;100.00
49723;BME280;43484;43.608;1.458;2023-04-29T00:46:44;99256.72;;;17.04;100.00
49723;BME280;43484;43.608;1.458;2023-04-29T00:49:12;99261.88;;;17.10;100.00
49723;BME280;43484;43.608;1.458;2023-04-29T00:51:39;99264.47;;;17.08;100.00
49723;BME280;43484;43.608;1.458;2023-04-29T00:54:07;99263.59;;;17.11;100.00
49723;BME280;43484;43.608;1.458;2023-04-29T00:56:34;99266.19;;;17.09;100.00
49723;BME280;43484;43.608;1.458;2023-04-29T00:59:02;99277.41;;;17.13;100.00
49723;BME280;43484;43.608;1.458;2023-04-29T01:01:30;99277.38;;;17.14;100.00
49723;BME280;43484;43.608;1.458;2023-04-29T01:03:56;99280.81;;;17.15;100.00
49723;BME280;43484;43.608;1.458;2023-04-29T01:06:57;99283.38;;;17.16;100.00
49723;BME280;43484;43.608;1.458;2023-04-29T01:14:32;99281.66;;;17.18;100.00
49723;BME280;43484;43.608;1.458;2023-04-29T01:17:05;99282.53;;;17.19;100.00
49723;BME280;43484;43.608;1.458;2023-04-29T01:19:46;99269.63;;;17.11;100.00
49723;BME280;43484;43.608;1.458;2023-04-29T01:22:14;99276.47;;;17.18;100.00
49723;BME280;43484;43.608;1.458;2023-04-29T01:24:43;99273.06;;;17.12;100.00
49723;BME280;43484;43.608;1.458;2023-04-29T01:27:23;99275.66;;;17.10;100.00
49723;BME280;43484;43.608;1.458;2023-04-29T01:33:14;99260.97;;;17.17;100.00
49723;BME280;43484;43.608;1.458;2023-04-29T01:36:23;99261.84;;;17.14;100.00
49723;BME280;43484;43.608;1.458;2023-04-29T01:39:03;99254.94;;;17.15;100.00
49723;BME280;43484;43.608;1.458;2023-04-29T01:41:43;99254.91;;;17.16;100.00
49723;BME280;43484;43.608;1.458;2023-04-29T01:44:14;99254.94;;;17.15;100.00
49723;BME280;43484;43.608;1.458;2023-04-29T01:46:45;99251.50;;;17.16;100.00
49723;BME280;43484;43.608;1.458;2023-04-29T01:49:14;99245.47;;;17.12;100.00
49723;BME280;43484;43.608;1.458;2023-04-29T01:51:41;99244.59;;;17.13;100.00
49723;BME280;43484;43.608;1.458;2023-04-29T01:54:08;99239.41;;;17.13;100.00
49723;BME280;43484;43.608;1.458;2023-04-29T01:56:34;99243.69;;;17.20;100.00
49723;BME280;43484;43.608;1.458;2023-04-29T01:59:01;99241.97;;;17.19;100.00
49723;BME280;43484;43.608;1.458;2023-04-29T02:01:27;99241.97;;;17.22;100.00
49723;BME280;43484;43.608;1.458;2023-04-29T02:03:54;99248.03;;;17.14;100.00
49723;BME280;43484;43.608;1.458;2023-04-29T02:06:21;99243.72;;;17.11;100.00
49723;BME280;43484;43.608;1.458;2023-04-29T02:08:48;99248.91;;;17.16;100.00
49723;BME280;43484;43.608;1.458;2023-04-29T02:11:14;99250.56;;;17.21;100.00
49723;BME280;43484;43.608;1.458;2023-04-29T02:13:41;99248.00;;;17.24;100.00
49723;BME280;43484;43.608;1.458;2023-04-29T02:16:09;99253.16;;;17.26;100.00
49723;BME280;43484;43.608;1.458;2023-04-29T02:18:36;99254.81;;;17.30;100.00
49723;BME280;43484;43.608;1.458;2023-04-29T02:21:02;99266.03;;;17.32;100.00
49723;BME280;43484;43.608;1.458;2023-04-29T02:23:29;99275.56;;;17.28;100.00
49723;BME280;43484;43.608;1.458;2023-04-29T02:25:56;99285.88;;;17.36;100.00
49723;BME280;43484;43.608;1.458;2023-04-29T02:28:22;99281.53;;;17.39;100.00
49723;BME280;43484;43.608;1.458;2023-04-29T02:30:49;99276.34;;;17.36;100.00
49723;BME280;43484;43.608;1.458;2023-04-29T02:33:16;99266.88;;;17.37;100.00
49723;BME280;43484;43.608;1.458;2023-04-29T02:35:43;99275.53;;;17.36;100.00
49723;BME280;43484;43.608;1.458;2023-04-29T02:38:10;99279.81;;;17.38;100.00
49723;BME280;43484;43.608;1.458;2023-04-29T02:40:44;99268.59;;;17.35;100.00
49723;BME280;43484;43.608;1.458;2023-04-29T02:43:11;99260.00;;;17.30;100.00
49723;BME280;43484;43.608;1.458;2023-04-29T02:45:38;99263.44;;;17.33;100.00
49723;BME280;43484;43.608;1.458;2023-04-29T02:48:05;99262.59;;;17.28;100.00
49723;BME280;43484;43.608;1.458;2023-04-29T02:50:32;99255.75;;;17.24;100.00
49723;BME280;43484;43.608;1.458;2023-04-29T02:52:58;99251.41;;;17.29;100.00
49723;BME280;43484;43.608;1.458;2023-04-29T02:55:25;99258.28;;;17.32;100.00
49723;BME280;43484;43.608;1.458;2023-04-29T02:57:52;99266.00;;;17.36;100.00
49723;BME280;43484;43.608;1.458;2023-04-29T03:00:19;99262.59;;;17.33;100.00
49723;BME280;43484;43.608;1.458;2023-04-29T03:02:47;99264.31;;;17.34;100.00
49723;BME280;43484;43.608;1.458;2023-04-29T03:05:14;99263.41;;;17.36;100.00
49723;BME280;43484;43.608;1.458;2023-04-29T03:07:40;99254.84;;;17.33;100.00
49723;BME280;43484;43.608;1.458;2023-04-29T03:10:07;99249.66;;;17.28;100.00
49723;BME280;43484;43.608;1.458;2023-04-29T03:12:34;99244.47;;;17.33;100.00
49723;BME280;43484;43.608;1.458;2023-04-29T03:15:01;99246.22;;;17.31;100.00
49723;BME280;43484;43.608;1.458;2023-04-29T03:17:28;99239.31;;;17.33;100.00
49723;BME280;43484;43.608;1.458;2023-04-29T03:19:54;99245.31;;;17.35;100.00
49723;BME280;43484;43.608;1.458;2023-04-29T03:22:21;99246.19;;;17.32;100.00
49723;BME280;43484;43.608;1.458;2023-04-29T03:24:48;99247.06;;;17.34;100.00
49723;BME280;43484;43.608;1.458;2023-04-29T03:27:14;99248.75;;;17.35;100.00
49723;BME280;43484;43.608;1.458;2023-04-29T03:29:41;99230.66;;;17.34;100.00
49723;BME280;43484;43.608;1.458;2023-04-29T03:32:07;99239.28;;;17.30;100.00
49723;BME280;43484;43.608;1.458;2023-04-29T03:34:34;99229.84;;;17.27;100.00
49723;BME280;43484;43.608;1.458;2023-04-29T03:37:01;99231.53;;;17.28;100.00
49723;BME280;43484;43.608;1.458;2023-04-29T03:39:27;99230.69;;;17.29;100.00
49723;BME280;43484;43.608;1.458;2023-04-29T03:41:58;99221.19;;;17.28;100.00
49723;BME280;43484;43.608;1.458;2023-04-29T03:44:25;99204.81;;;17.28;100.00
49723;BME280;43484;43.608;1.458;2023-04-29T03:46:51;99212.56;;;17.26;100.00
49723;BME280;43484;43.608;1.458;2023-04-29T03:49:18;99212.59;;;17.25;100.00
49723;BME280;43484;43.608;1.458;2023-04-29T03:51:44;99200.47;;;17.30;100.00
49723;BME280;43484;43.608;1.458;2023-04-29T03:54:11;99196.22;;;17.24;100.00
49723;BME280;43484;43.608;1.458;2023-04-29T03:56:38;99192.75;;;17.24;100.00
49723;BME280;43484;43.608;1.458;2023-04-29T03:59:05;99179.88;;;17.13;100.00
49723;BME280;43484;43.608;1.458;2023-04-29T04:01:32;99172.13;;;17.13;100.00
49723;BME280;43484;43.608;1.458;2023-04-29T04:03:59;99176.41;;;17.19;100.00
49723;BME280;43484;43.608;1.458;2023-04-29T04:06:26;99178.09;;;17.21;100.00
49723;BME280;43484;43.608;1.458;2023-04-29T04:08:53;99171.22;;;17.19;100.00
49723;BME280;43484;43.608;1.458;2023-04-29T04:11:19;99158.34;;;17.13;100.00
49723;BME280;43484;43.608;1.458;2023-04-29T04:13:45;99153.13;;;17.16;100.00
49723;BME280;43484;43.608;1.458;2023-04-29T04:16:12;99149.72;;;17.11;100.00
49723;BME280;43484;43.608;1.458;2023-04-29T04:18:39;99128.16;;;17.09;100.00
49723;BME280;43484;43.608;1.458;2023-04-29T04:21:09;99121.28;;;17.08;100.00
49723;BME280;43484;43.608;1.458;2023-04-29T04:23:37;99119.50;;;17.10;100.00
49723;BME280;43484;43.608;1.458;2023-04-29T04:26:06;99116.09;;;17.06;100.00
49723;BME280;43484;43.608;1.458;2023-04-29T04:28:33;99113.53;;;17.05;100.00
49723;BME280;43484;43.608;1.458;2023-04-29T04:30:59;99118.72;;;17.02;100.00
49723;BME280;43484;43.608;1.458;2023-04-29T04:33:26;99117.84;;;17.04;100.00
49723;BME280;43484;43.608;1.458;2023-04-29T04:35:54;99111.75;;;17.10;100.00
49723;BME280;43484;43.608;1.458;2023-04-29T04:38:20;99123.09;;;16.97;100.00
49723;BME280;43484;43.608;1.458;2023-04-29T04:40:50;99130.94;;;16.88;100.00
49723;BME280;43484;43.608;1.458;2023-04-29T04:43:17;99123.97;;;16.94;100.00
49723;BME280;43484;43.608;1.458;2023-04-29T04:45:44;99126.56;;;16.96;100.00
49723;BME280;43484;43.608;1.458;2023-04-29T04:48:11;99123.09;;;16.94;100.00
49723;BME280;43484;43.608;1.458;2023-04-29T04:50:37;99129.16;;;16.90;100.00
49723;BME280;43484;43.608;1.458;2023-04-29T04:53:04;99124.88;;;16.87;100.00
49723;BME280;43484;43.608;1.458;2023-04-29T04:55:31;99129.16;;;16.94;100.00
49723;BME280;43484;43.608;1.458;2023-04-29T04:57:58;99137.75;;;16.95;100.00
49723;BME280;43484;43.608;1.458;2023-04-29T05:00:25;99143.78;;;16.97;100.00
49723;BME280;43484;43.608;1.458;2023-04-29T05:02:52;99146.38;;;16.97;100.00
49723;BME280;43484;43.608;1.458;2023-04-29T05:05:18;99147.22;;;16.99;100.00
49723;BME280;43484;43.608;1.458;2023-04-29T05:07:45;99148.97;;;16.95;100.00
49723;BME280;43484;43.608;1.458;2023-04-29T05:10:12;99155.91;;;16.90;100.00
49723;BME280;43484;43.608;1.458;2023-04-29T05:12:39;99163.66;;;16.92;100.00
49723;BME280;43484;43.608;1.458;2023-04-29T05:15:06;99163.59;;;16.96;100.00
49723;BME280;43484;43.608;1.458;2023-04-29T05:17:33;99170.50;;;16.99;100.00
49723;BME280;43484;43.608;1.458;2023-04-29T05:20:01;99176.53;;;16.96;100.00
49723;BME280;43484;43.608;1.458;2023-04-29T05:22:28;99171.41;;;16.92;100.00
49723;BME280;43484;43.608;1.458;2023-04-29T05:24:55;99175.69;;;16.97;100.00
49723;BME280;43484;43.608;1.458;2023-04-29T05:27:28;99180.88;;;16.97;100.00
49723;BME280;43484;43.608;1.458;2023-04-29T05:29:55;99184.31;;;16.98;100.00
49723;BME280;43484;43.608;1.458;2023-04-29T05:32:22;99181.72;;;16.99;100.00
49723;BME280;43484;43.608;1.458;2023-04-29T05:34:49;99186.88;;;17.01;100.00
49723;BME280;43484;43.608;1.458;2023-04-29T05:37:16;99187.75;;;17.03;100.00
49723;BME280;43484;43.608;1.458;2023-04-29T05:39:42;99185.16;;;17.00;100.00
49723;BME280;43484;43.608;1.458;2023-04-29T05:42:09;99177.41;;;17.03;100.00
49723;BME280;43484;43.608;1.458;2023-04-29T05:44:35;99183.41;;;17.03;100.00
49723;BME280;43484;43.608;1.458;2023-04-29T05:47:02;99179.97;;;17.00;100.00
49723;BME280;43484;43.608;1.458;2023-04-29T05:49:29;99180.81;;;17.03;100.00
49723;BME280;43484;43.608;1.458;2023-04-29T05:51:56;99174.81;;;16.98;100.00
49723;BME280;43484;43.608;1.458;2023-04-29T05:54:22;99174.84;;;16.94;100.00
49723;BME280;43484;43.608;1.458;2023-04-29T05:56:49;99171.41;;;16.93;100.00
49723;BME280;43484;43.608;1.458;2023-04-29T05:59:15;99160.19;;;16.96;100.00
49723;BME280;43484;43.608;1.458;2023-04-29T06:01:42;99156.75;;;16.94;100.00
49723;BME280;43484;43.608;1.458;2023-04-29T06:04:08;99158.44;;;16.98;100.00
49723;BME280;43484;43.608;1.458;2023-04-29T06:06:35;99148.91;;;17.04;100.00
49723;BME280;43484;43.608;1.458;2023-04-29T06:09:02;99138.56;;;17.00;100.00
49723;BME280;43484;43.608;1.458;2023-04-29T06:11:38;99141.19;;;16.97;100.00
49723;BME280;43484;43.608;1.458;2023-04-29T06:14:05;99143.75;;;17.03;100.00
49723;BME280;43484;43.608;1.458;2023-04-29T06:16:32;99138.56;;;17.03;100.00
49723;BME280;43484;43.608;1.458;2023-04-29T06:19:00;99147.19;;;17.03;100.00
49723;BME280;43484;43.608;1.458;2023-04-29T06:21:27;99139.41;;;17.05;100.00
49723;BME280;43484;43.608;1.458;2023-04-29T06:23:54;99145.50;;;16.95;100.00
49723;BME280;43484;43.608;1.458;2023-04-29T06:26:20;99145.50;;;17.01;100.00
49723;BME280;43484;43.608;1.458;2023-04-29T06:28:47;99165.28;;;17.08;100.00
49723;BME280;43484;43.608;1.458;2023-04-29T06:31:14;99173.91;;;17.04;100.00
49723;BME280;43484;43.608;1.458;2023-04-29T06:33:41;99176.50;;;17.04;100.00
49723;BME280;43484;43.608;1.458;2023-04-29T06:36:08;99188.59;;;17.03;100.00
49723;BME280;43484;43.608;1.458;2023-04-29T06:38:34;99185.16;;;16.98;100.00
49723;BME280;43484;43.608;1.458;2023-04-29T06:41:01;99188.63;;;16.99;100.00
49723;BME280;43484;43.608;1.458;2023-04-29T06:43:29;99193.78;;;17.02;100.00
49723;BME280;43484;43.608;1.458;2023-04-29T06:45:56;99185.97;;;17.05;100.00
49723;BME280;43484;43.608;1.458;2023-04-29T06:48:22;99181.69;;;17.04;100.00
49723;BME280;43484;43.608;1.458;2023-04-29T06:50:50;99173.94;;;17.02;100.00
49723;BME280;43484;43.608;1.458;2023-04-29T06:53:17;99180.81;;;17.05;100.00
49723;BME280;43484;43.608;1.458;2023-04-29T06:55:43;99186.84;;;17.05;100.00
49723;BME280;43484;43.608;1.458;2023-04-29T06:58:12;99184.22;;;17.08;100.00
49723;BME280;43484;43.608;1.458;2023-04-29T07:00:39;99178.19;;;17.11;100.00
49723;BME280;43484;43.608;1.458;2023-04-29T07:03:06;99174.78;;;17.04;100.00
49723;BME280;43484;43.608;1.458;2023-04-29T07:05:33;99183.41;;;17.03;100.00
49723;BME280;43484;43.608;1.458;2023-04-29T07:08:00;99192.03;;;17.05;100.00
49723;BME280;43484;43.608;1.458;2023-04-29T07:10:27;99206.66;;;17.11;100.00
49723;BME280;43484;43.608;1.458;2023-04-29T07:12:53;99214.44;;;17.06;100.00
49723;BME280;43484;43.608;1.458;2023-04-29T07:15:20;99215.25;;;17.11;100.00
49723;BME280;43484;43.608;1.458;2023-04-29T07:17:47;99201.44;;;17.17;100.00
49723;BME280;43484;43.608;1.458;2023-04-29T07:20:13;99185.97;;;17.11;100.00
49723;BME280;43484;43.608;1.458;2023-04-29T07:22:40;99167.84;;;17.06;100.00
49723;BME280;43484;43.608;1.458;2023-04-29T07:25:07;99188.53;;;17.12;100.00
49723;BME280;43484;43.608;1.458;2023-04-29T07:27:33;99210.94;;;17.13;100.00
49723;BME280;43484;43.608;1.458;2023-04-29T07:30:01;99228.28;;;17.01;100.00
49723;BME280;43484;43.608;1.458;2023-04-29T07:32:28;99226.50;;;17.10;100.00
49723;BME280;43484;43.608;1.458;2023-04-29T07:34:57;99223.03;;;17.16;100.00
49723;BME280;43484;43.608;1.458;2023-04-29T07:37:24;99221.25;;;17.21;100.00
49723;BME280;43484;43.608;1.458;2023-04-29T07:39:51;99218.63;;;17.27;100.00
49723;BME280;43484;43.608;1.458;2023-04-29T07:42:18;99215.16;;;17.26;100.00
49723;BME280;43484;43.608;1.458;2023-04-29T07:44:44;99216.91;;;17.26;100.00
49723;BME280;43484;43.608;1.458;2023-04-29T07:47:11;99213.41;;;17.33;100.00
49723;BME280;43484;43.608;1.458;2023-04-29T07:49:37;99219.53;;;17.23;100.00
49723;BME280;43484;43.608;1.458;2023-04-29T07:52:04;99203.94;;;17.29;100.00
49723;BME280;43484;43.608;1.458;2023-04-29T07:54:33;99210.88;;;17.25;100.00
49723;BME280;43484;43.608;1.458;2023-04-29T07:57:00;99212.59;;;17.28;100.00
49723;BME280;43484;43.608;1.458;2023-04-29T07:59:29;99216.16;;;17.09;100.00
49723;BME280;43484;43.608;1.458;2023-04-29T08:01:56;99223.09;;;17.04;100.00
49723;BME280;43484;43.608;1.458;2023-04-29T08:04:23;99220.44;;;17.14;100.00
49723;BME280;43484;43.608;1.458;2023-04-29T08:06:50;99233.47;;;16.95;100.00
49723;BME280;43484;43.608;1.458;2023-04-29T08:09:16;99233.50;;;16.93;100.00
49723;BME280;43484;43.608;1.458;2023-04-29T08:11:43;99245.69;;;16.70;100.00
49723;BME280;43484;43.608;1.458;2023-04-29T08:14:11;99254.28;;;16.78;100.00
49723;BME280;43484;43.608;1.458;2023-04-29T08:16:37;99246.50;;;16.86;100.00
49723;BME280;43484;43.608;1.458;2023-04-29T08:19:04;99237.75;;;17.05;100.00
49723;BME280;43484;43.608;1.458;2023-04-29T08:21:31;99225.63;;;17.14;100.00
49723;BME280;43484;43.608;1.458;2023-04-29T08:23:58;99219.56;;;17.15;100.00
49723;BME280;43484;43.608;1.458;2023-04-29T08:26:24;99214.31;;;17.27;100.00
49723;BME280;43484;43.608;1.458;2023-04-29T08:28:52;99206.47;;;17.35;100.00
49723;BME280;43484;43.608;1.458;2023-04-29T08:31:19;99199.56;;;17.37;100.00
49723;BME280;43484;43.608;1.458;2023-04-29T08:33:47;99203.97;;;17.21;100.00
49723;BME280;43484;43.608;1.458;2023-04-29T08:36:14;99184.94;;;17.33;100.00
49723;BME280;43484;43.608;1.458;2023-04-29T08:38:40;99174.53;;;17.36;100.00
49723;BME280;43484;43.608;1.458;2023-04-29T08:41:07;99179.69;;;17.39;100.00
49723;BME280;43484;43.608;1.458;2023-04-29T08:43:37;99188.53;;;17.12;100.00
49723;BME280;43484;43.608;1.458;2023-04-29T08:46:06;99201.53;;;17.02;100.00
49723;BME280;43484;43.608;1.458;2023-04-29T08:48:35;99209.22;;;17.12;100.00
49723;BME280;43484;43.608;1.458;2023-04-29T08:51:03;99219.63;;;17.05;100.00
49723;BME280;43484;43.608;1.458;2023-04-29T08:53:30;99228.28;;;16.96;100.00
49723;BME280;43484;43.608;1.458;2023-04-29T08:56:00;99221.31;;;17.10;100.00
49723;BME280;43484;43.608;1.458;2023-04-29T08:58:33;99220.44;;;17.10;100.00
49723;BME280;43484;43.608;1.458;2023-04-29T09:01:01;99223.00;;;17.17;100.00
49723;BME280;43484;43.608;1.458;2023-04-29T09:06:04;99216.72;;;17.55;100.00
49723;BME280;43484;43.608;1.458;2023-04-29T09:08:32;99209.72;;;17.64;100.00
49723;BME280;43484;43.608;1.458;2023-04-29T09:10:59;99207.91;;;17.72;100.00
49723;BME280;43484;43.608;1.458;2023-04-29T09:13:30;99200.22;;;17.62;100.00
49723;BME280;43484;43.608;1.458;2023-04-29T09:15:57;99189.91;;;17.57;100.00
49723;BME280;43484;43.608;1.458;2023-04-29T09:21:14;99165.56;;;17.78;100.00
49723;BME280;43484;43.608;1.458;2023-04-29T09:23:41;99175.00;;;17.83;100.00
49723;BME280;43484;43.608;1.458;2023-04-29T09:26:08;99174.91;;;17.91;100.00
49723;BME280;43484;43.608;1.458;2023-04-29T09:28:34;99179.06;;;18.05;100.00
49723;BME280;43484;43.608;1.458;2023-04-29T09:31:02;99184.25;;;18.07;100.00
49723;BME280;43484;43.608;1.458;2023-04-29T09:33:48;99181.66;;;18.08;100.00
49723;BME280;43484;43.608;1.458;2023-04-29T09:39:00;99175.78;;;17.90;100.00
49723;BME280;43484;43.608;1.458;2023-04-29T09:41:27;99181.28;;;17.58;100.00
49723;BME280;43484;43.608;1.458;2023-04-29T09:44:05;99196.09;;;17.39;100.00
49723;BME280;43484;43.608;1.458;2023-04-29T09:46:33;99197.00;;;17.34;100.00
49723;BME280;43484;43.608;1.458;2023-04-29T09:49:02;99203.03;;;17.36;100.00
49723;BME280;43484;43.608;1.458;2023-04-29T09:51:39;99214.31;;;17.26;100.00
49723;BME280;43484;43.608;1.458;2023-04-29T09:54:21;99211.53;;;17.55;100.00
49723;BME280;43484;43.608;1.458;2023-04-29T09:56:50;99220.13;;;17.60;100.00
49723;BME280;43484;43.608;1.458;2023-04-29T09:59:18;99218.09;;;17.93;100.00
49723;BME280;43484;43.608;1.458;2023-04-29T10:01:48;99217.13;;;18.03;100.00
49723;BME280;43484;43.608;1.458;2023-04-29T10:04:18;99215.13;;;18.28;100.00
49723;BME280;43484;43.608;1.458;2023-04-29T10:06:48;99230.34;;;18.58;100.00
49723;BME280;43484;43.608;1.458;2023-04-29T10:09:15;99264.84;;;18.66;100.00
49723;BME280;43484;43.608;1.458;2023-04-29T10:11:47;99331.44;;;18.64;100.00
49723;BME280;43484;43.608;1.458;2023-04-29T10:14:19;99361.66;;;18.69;100.00
49723;BME280;43484;43.608;1.458;2023-04-29T10:16:57;99384.34;;;18.49;100.00
49723;BME280;43484;43.608;1.458;2023-04-29T10:19:50;99355.84;;;18.48;100.00
49723;BME280;43484;43.608;1.458;2023-04-29T10:22:20;99353.47;;;18.21;100.00
49723;BME280;43484;43.608;1.458;2023-04-29T10:24:48;99338.63;;;18.39;100.00
49723;BME280;43484;43.608;1.458;2023-04-29T10:27:15;99368.09;;;18.29;100.00
49723;BME280;43484;43.608;1.458;2023-04-29T10:29:43;99362.97;;;18.22;100.00
49723;BME280;43484;43.608;1.458;2023-04-29T10:32:12;99361.22;;;18.22;100.00
49723;BME280;43484;43.608;1.458;2023-04-29T10:34:40;99366.13;;;18.58;100.00
49723;BME280;43484;43.608;1.458;2023-04-29T10:37:09;99369.66;;;18.51;100.00
49723;BME280;43484;43.608;1.458;2023-04-29T10:39:46;99373.09;;;18.50;100.00
49723;BME280;43484;43.608;1.458;2023-04-29T10:42:30;99360.00;;;18.62;100.00
49723;BME280;43484;43.608;1.458;2023-04-29T10:45:17;99351.44;;;18.54;100.00
49723;BME280;43484;43.608;1.458;2023-04-29T10:50:58;99343.59;;;18.62;100.00
49723;BME280;43484;43.608;1.458;2023-04-29T10:53:26;99352.13;;;18.73;100.00
49723;BME280;43484;43.608;1.458;2023-04-29T10:55:58;99359.25;;;18.51;100.00
49723;BME280;43484;43.608;1.458;2023-04-29T11:01:10;99346.25;;;18.54;100.00
49723;BME280;43484;43.608;1.458;2023-04-29T11:09:29;99328.31;;;18.33;100.00
49723;BME280;43484;43.608;1.458;2023-04-29T11:11:59;99333.22;;;18.62;100.00
49723;BME280;43484;43.608;1.458;2023-04-29T11:17:00;99366.28;;;18.43;100.00
49723;BME280;43484;43.608;1.458;2023-04-29T11:22:28;99367.66;;;18.76;100.00
49723;BME280;43484;43.608;1.458;2023-04-29T11:25:04;99385.53;;;19.02;100.00
49723;BME280;43484;43.608;1.458;2023-04-29T11:27:33;99434.84;;;19.02;100.00
49723;BME280;43484;43.608;1.458;2023-04-29T11:30:01;99445.19;;;19.05;100.00
49723;BME280;43484;43.608;1.458;2023-04-29T11:32:31;99450.00;;;19.42;100.00
49723;BME280;43484;43.608;1.458;2023-04-29T11:35:12;99475.59;;;19.74;100.00
49723;BME280;43484;43.608;1.458;2023-04-29T11:37:41;99514.69;;;19.63;100.00
49723;BME280;43484;43.608;1.458;2023-04-29T11:40:09;99478.16;;;18.98;100.00
49723;BME280;43484;43.608;1.458;2023-04-29T11:42:45;99452.44;;;18.74;100.00
49723;BME280;43484;43.608;1.458;2023-04-29T11:45:13;99419.53;;;18.77;100.00
49723;BME280;43484;43.608;1.458;2023-04-29T11:47:44;99401.31;;;18.85;100.00
49723;BME280;43484;43.608;1.458;2023-04-29T11:50:12;99379.41;;;19.07;100.00
49723;BME280;43484;43.608;1.458;2023-04-29T11:52:42;99399.22;;;19.14;100.00
49723;BME280;43484;43.608;1.458;2023-04-29T11:55:10;99406.50;;;18.84;100.00
49723;BME280;43484;43.608;1.458;2023-04-29T11:57:38;99394.56;;;18.66;100.00
49723;BME280;43484;43.608;1.458;2023-04-29T12:00:10;99405.78;;;18.69;100.00
49723;BME280;43484;43.608;1.458;2023-04-29T12:02:43;99394.66;;;18.55;100.00
49723;BME280;43484;43.608;1.458;2023-04-29T12:05:12;99363.44;;;18.64;100.00
49723;BME280;43484;43.608;1.458;2023-04-29T12:07:42;99341.09;;;18.53;100.00
49723;BME280;43484;43.608;1.458;2023-04-29T12:10:09;99326.41;;;18.53;100.00
49723;BME280;43484;43.608;1.458;2023-04-29T12:12:38;99349.84;;;18.43;100.00
49723;BME280;43484;43.608;1.458;2023-04-29T12:15:07;99343.59;;;18.63;100.00
49723;BME280;43484;43.608;1.458;2023-04-29T12:17:36;99325.53;;;18.51;100.00
49723;BME280;43484;43.608;1.458;2023-04-29T12:20:04;99333.22;;;18.62;100.00
49723;BME280;43484;43.608;1.458;2023-04-29T12:22:31;99348.75;;;18.65;100.00
49723;BME280;43484;43.608;1.458;2023-04-29T12:24:58;99344.38;;;18.70;100.00
49723;BME280;43484;43.608;1.458;2023-04-29T12:27:25;99352.28;;;18.58;100.00
49723;BME280;43484;43.608;1.458;2023-04-29T12:29:52;99338.41;;;18.59;100.00
49723;BME280;43484;43.608;1.458;2023-04-29T12:32:21;99326.56;;;18.31;100.00
49723;BME280;43484;43.608;1.458;2023-04-29T12:34:50;99305.94;;;18.22;100.00
49723;BME280;43484;43.608;1.458;2023-04-29T12:37:18;99298.00;;;18.41;100.00
49723;BME280;43484;43.608;1.458;2023-04-29T12:39:48;99289.59;;;18.12;100.00
49723;BME280;43484;43.608;1.458;2023-04-29T12:42:15;99266.22;;;18.15;100.00
49723;BME280;43484;43.608;1.458;2023-04-29T12:44:45;99270.59;;;18.10;100.00
49723;BME280;43484;43.608;1.458;2023-04-29T12:47:15;99254.03;;;18.26;100.00
49723;BME280;43484;43.608;1.458;2023-04-29T12:49:44;99248.91;;;18.19;100.00
49723;BME280;43484;43.608;1.458;2023-04-29T12:52:11;99250.81;;;18.00;100.00
49723;BME280;43484;43.608;1.458;2023-04-29T12:54:39;99250.81;;;18.05;100.00
49723;BME280;43484;43.608;1.458;2023-04-29T12:57:10;99252.38;;;18.18;100.00
49723;BME280;43484;43.608;1.458;2023-04-29T12:59:37;99253.16;;;18.26;100.00
49723;BME280;43484;43.608;1.458;2023-04-29T13:02:05;99247.13;;;18.27;100.00
49723;BME280;43484;43.608;1.458;2023-04-29T13:04:31;99242.88;;;18.15;100.00
49723;BME280;43484;43.608;1.458;2023-04-29T13:06:58;99242.88;;;18.15;100.00
49723;BME280;43484;43.608;1.458;2023-04-29T13:09:29;99239.38;;;18.22;100.00
49723;BME280;43484;43.608;1.458;2023-04-29T13:11:56;99243.81;;;18.13;100.00
49723;BME280;43484;43.608;1.458;2023-04-29T13:14:24;99240.47;;;17.99;100.00
49723;BME280;43484;43.608;1.458;2023-04-29T13:16:51;99236.22;;;17.95;100.00
49723;BME280;43484;43.608;1.458;2023-04-29T13:19:18;99231.03;;;17.95;100.00
49723;BME280;43484;43.608;1.458;2023-04-29T13:22:04;99232.75;;;17.94;100.00
49723;BME280;43484;43.608;1.458;2023-04-29T13:24:32;99243.84;;;18.05;100.00
49723;BME280;43484;43.608;1.458;2023-04-29T13:27:00;99232.69;;;18.00;100.00
49723;BME280;43484;43.608;1.458;2023-04-29T13:29:28;99232.81;;;17.85;100.00